Time;durP1;ratioP1;P1;durP2;ratioP2;P2;SDS_P1;SDS_P2;PMS_P1;PMS_P2;Temp;Humidity;BMP_temperature;BMP_pressure;BME280_temperature;BME280_humidity;BME280_pressure;Samples;Min_cycle;Max_cycle;Signal;HPM_P1;HPM_P2
2022/01/23 00:00:44;;;;;;;10.40;5.25;;;;;;;-1.45;77.31;100676.25;1710606;81;21162;-70
2022/01/23 00:03:18;;;;;;;8.00;2.85;;;;;;;-1.43;77.51;100674.55;1711975;81;21040;-70
2022/01/23 00:05:46;;;;;;;9.05;4.05;;;;;;;-1.42;77.23;100672.03;1707554;82;21823;-70
2022/01/23 00:08:17;;;;;;;12.65;4.87;;;;;;;-1.45;77.19;100670.70;1719601;81;21579;-69
2022/01/23 00:10:43;;;;;;;12.55;5.47;;;;;;;-1.43;77.42;100668.15;1717921;81;21594;-70
2022/01/23 00:13:16;;;;;;;11.85;6.42;;;;;;;-1.43;77.33;100664.30;1711027;82;21108;-70
2022/01/23 00:18:24;;;;;;;14.07;5.65;;;;;;;-1.42;77.52;100672.45;1708520;82;21063;-70
2022/01/23 00:20:51;;;;;;;10.43;5.33;;;;;;;-1.37;77.63;100666.99;1721387;81;21437;-69
2022/01/23 00:31:35;;;;;;;8.05;4.53;;;;;;;-1.29;77.63;100682.04;1705285;82;21036;-70
2022/01/23 00:34:02;;;;;;;10.85;5.15;;;;;;;-1.30;77.49;100679.05;1715801;82;21178;-70
2022/01/23 00:36:30;;;;;;;10.23;5.65;;;;;;;-1.33;77.56;100676.44;1706275;82;21214;-70
2022/01/23 00:38:57;;;;;;;12.30;5.40;;;;;;;-1.33;77.58;100679.00;1721773;82;21138;-71
2022/01/23 00:41:24;;;;;;;;;;;;;;;-1.31;77.65;100677.34;1716213;82;21113;-70
2022/01/23 00:43:53;;;;;;;9.30;4.28;;;;;;;-1.28;77.64;100674.82;1712161;82;20623;-70
2022/01/23 00:46:32;;;;;;;12.35;5.17;;;;;;;-1.29;77.53;100675.64;1714106;82;21040;-70
2022/01/23 00:51:27;;;;;;;10.38;4.47;;;;;;;-1.33;77.56;100679.00;1710852;81;21102;-70
2022/01/23 00:53:56;;;;;;;12.05;5.40;;;;;;;-1.32;77.60;100678.16;1716107;82;21136;-69
2022/01/23 00:56:22;;;;;;;9.70;5.30;;;;;;;-1.32;77.65;100671.75;1713664;82;21052;-70
2022/01/23 00:58:49;;;;;;;10.85;5.40;;;;;;;-1.31;77.62;100664.52;1710745;82;21125;-69
2022/01/23 01:01:16;;;;;;;11.08;5.72;;;;;;;-1.29;77.68;100660.27;1714236;81;22312;-70
2022/01/23 01:03:43;;;;;;;16.27;6.00;;;;;;;-1.28;77.71;100664.57;1712522;81;22424;-70
2022/01/23 01:06:10;;;;;;;13.25;5.40;;;;;;;-1.27;77.69;100665.00;1718674;81;21105;-70
2022/01/23 01:08:37;;;;;;;12.30;6.12;;;;;;;-1.30;77.60;100661.11;1717472;82;21208;-70
2022/01/23 01:16:56;;;;;;;9.53;5.00;;;;;;;-1.33;77.61;100658.50;1708257;82;21628;-70
2022/01/23 01:35:34;;;;;;;9.23;4.80;;;;;;;-1.15;77.75;100669.45;1709240;81;21132;-70
2022/01/23 01:37:57;;;;;;;9.03;4.12;;;;;;;-1.16;77.71;100665.17;1691113;82;21116;-69
2022/01/23 01:40:25;;;;;;;8.63;4.35;;;;;;;-1.17;77.71;100663.03;1701367;83;21016;-70
2022/01/23 01:42:53;;;;;;;11.48;5.45;;;;;;;-1.21;77.60;100666.38;1734152;81;21726;-70
2022/01/23 01:45:26;;;;;;;14.18;5.12;;;;;;;-1.17;77.67;100678.41;1706630;82;28950;-70
2022/01/23 01:47:56;;;;;;;10.20;4.62;;;;;;;-1.17;77.67;100678.41;1717530;82;21128;-70
2022/01/23 01:50:28;;;;;;;12.28;4.92;;;;;;;-1.14;77.80;100670.77;1708268;82;21539;-70
2022/01/23 01:52:55;;;;;;;8.90;4.42;;;;;;;-1.11;77.79;100671.66;1709266;82;21134;-70
2022/01/23 01:55:29;;;;;;;9.37;4.50;;;;;;;-1.06;77.86;100670.04;1707764;82;21310;-70
2022/01/23 01:58:00;;;;;;;8.38;4.58;;;;;;;-1.06;77.79;100670.04;1695367;82;21097;-70
2022/01/23 02:08:30;;;;;;;;;;;;;;;-1.11;77.72;100658.85;1707129;82;21158;-70
2022/01/23 02:11:15;;;;;;;10.58;4.72;;;;;;;-1.08;77.83;100657.61;1701482;82;20213;-70
2022/01/23 02:13:46;;;;;;;11.78;4.83;;;;;;;-1.04;77.87;100663.20;1691472;83;21684;-70
2022/01/23 02:24:21;;;;;;;9.85;4.67;;;;;;;-0.93;77.89;100653.55;1679937;83;21374;-70
2022/01/23 02:51:01;;;;;;;9.18;4.80;;;;;;;-0.68;78.14;100684.25;1683278;82;22035;-70
2022/01/23 02:55:56;;;;;;;8.48;3.50;;;;;;;-0.60;78.14;100700.17;1709732;82;21129;-70
2022/01/23 02:58:25;;;;;;;6.05;3.05;;;;;;;-0.62;78.00;100704.41;1705925;82;21149;-70
2022/01/23 03:01:08;;;;;;;6.92;3.42;;;;;;;-0.64;78.00;100710.83;1708921;82;21112;-70
2022/01/23 03:03:25;;;;;;;6.03;3.17;;;;;;;-0.68;78.01;100720.16;1708051;82;21009;-71
2022/01/23 03:06:18;;;;;;;5.65;3.55;;;;;;;-0.69;78.08;100710.75;1716991;81;21080;-70
2022/01/23 03:08:43;;;;;;;5.47;2.95;;;;;;;-0.64;78.17;100712.50;1707297;82;21097;-70
2022/01/23 03:11:02;;;;;;;8.50;3.52;;;;;;;-0.60;78.19;100714.28;1709851;82;21176;-70
2022/01/23 03:13:44;;;;;;;6.10;3.02;;;;;;;-0.58;78.17;100712.61;1710303;82;22314;-70
2022/01/23 03:16:17;;;;;;;6.83;2.90;;;;;;;-0.60;78.11;100709.16;1708357;82;21143;-70
2022/01/23 03:24:28;;;;;;;7.12;2.95;;;;;;;-0.68;78.01;100699.63;1711073;82;21758;-70
2022/01/23 03:26:59;;;;;;;4.17;2.60;;;;;;;-0.70;78.02;100691.08;1708616;82;21403;-70
2022/01/23 03:29:25;;;;;;;5.30;3.08;;;;;;;-0.63;78.23;100689.45;1704631;81;21718;-70
2022/01/23 03:34:19;;;;;;;4.17;2.62;;;;;;;-0.51;78.26;100688.75;1712780;82;21024;-70
2022/01/23 03:36:46;;;;;;;6.17;2.62;;;;;;;-0.47;78.27;100689.25;1714178;82;21594;-70
2022/01/23 03:39:13;;;;;;;5.30;2.60;;;;;;;-0.48;78.21;100692.23;1711095;82;22489;-71
2022/01/23 03:41:43;;;;;;;8.43;3.20;;;;;;;-0.47;78.24;100698.23;1715918;82;21102;-70
2022/01/23 03:44:12;;;;;;;4.72;2.25;;;;;;;-0.44;78.24;100688.00;1707652;82;21092;-70
2022/01/23 03:46:49;;;;;;;4.55;2.77;;;;;;;-0.42;78.19;100695.70;1710952;82;21617;-70
2022/01/23 03:49:33;;;;;;;5.42;2.72;;;;;;;-0.44;78.10;100700.83;1718428;81;21163;-71
2022/01/23 03:52:09;;;;;;;6.03;3.37;;;;;;;-0.48;78.03;100691.35;1710542;82;22458;-70
2022/01/23 03:54:38;;;;;;;7.87;3.10;;;;;;;-0.48;78.08;100686.22;1714098;82;22201;-70
2022/01/23 03:57:06;;;;;;;4.50;2.42;;;;;;;-0.45;78.17;100693.95;1709856;82;21034;-70
2022/01/23 03:59:34;;;;;;;5.97;2.80;;;;;;;-0.46;78.04;100699.94;1710488;82;21137;-70
2022/01/23 04:02:00;;;;;;;7.22;5.12;;;;;;;-0.43;78.11;100699.98;1713985;82;21617;-70
2022/01/23 04:04:38;;;;;;;5.00;2.55;;;;;;;-0.41;78.18;100706.00;1718811;81;21103;-70
2022/01/23 04:06:58;;;;;;;4.62;2.47;;;;;;;-0.39;78.11;100712.02;1707725;82;22330;-70
2022/01/23 04:09:25;;;;;;;4.17;2.35;;;;;;;-0.41;78.01;100708.56;1712667;81;21092;-70
2022/01/23 04:11:52;;;;;;;5.55;2.87;;;;;;;-0.44;77.93;100712.38;1707566;82;21194;-70
2022/01/23 04:14:20;;;;;;;4.25;2.10;;;;;;;-0.45;77.99;100713.20;1708415;82;21685;-70
2022/01/23 04:20:00;;;;;;;5.83;2.25;;;;;;;-0.52;77.69;100735.78;1710516;82;21097;-70
2022/01/23 04:59:54;;;;;;;9.60;6.15;;;;;;;-0.38;77.92;100756.08;1544639;91;21150;-70
2022/01/23 05:04:46;;;;;;;5.62;3.00;;;;;;;-0.30;77.91;100760.04;1628274;86;21162;-70
2022/01/23 05:07:15;;;;;;;4.47;2.70;;;;;;;-0.30;77.89;100763.46;1600238;87;21272;-70
2022/01/23 05:09:41;;;;;;;3.77;2.60;;;;;;;-0.26;78.00;100757.94;1628341;86;21559;-70
2022/01/23 05:12:11;;;;;;;3.65;2.10;;;;;;;-0.23;77.93;100765.25;1628205;84;21553;-70
2022/01/23 05:14:43;;;;;;;4.95;2.67;;;;;;;-0.23;77.94;100765.25;1634383;86;22042;-71
2022/01/23 05:17:13;;;;;;;6.75;3.12;;;;;;;-0.19;78.04;100768.74;1634811;86;21760;-70
2022/01/23 05:19:41;;;;;;;4.40;2.33;;;;;;;-0.21;77.75;100768.28;1642899;86;21248;-70
2022/01/23 05:22:28;;;;;;;8.25;3.15;;;;;;;-0.25;77.75;100772.09;1631313;86;21143;-70
2022/01/23 05:24:57;;;;;;;6.35;2.80;;;;;;;-0.27;77.69;100772.48;1639549;86;21188;-69
2022/01/23 05:27:23;;;;;;;10.50;2.83;;;;;;;-0.30;77.61;100776.30;1637712;84;21186;-70
2022/01/23 05:29:50;;;;;;;5.90;2.90;;;;;;;-0.34;77.58;100777.07;1707621;82;21162;-70
2022/01/23 05:32:20;;;;;;;5.55;3.20;;;;;;;-0.38;77.61;100779.17;1702109;83;22465;-70
2022/01/23 05:34:47;;;;;;;5.67;2.87;;;;;;;-0.39;77.75;100780.41;1735247;81;21082;-70
2022/01/23 05:37:16;;;;;;;6.40;2.67;;;;;;;-0.36;77.89;100778.78;1731257;81;20993;-70
2022/01/23 05:39:43;;;;;;;7.60;2.90;;;;;;;-0.33;77.87;100773.69;1727789;81;21055;-68
2022/01/23 05:42:10;;;;;;;7.08;2.98;;;;;;;-0.24;78.11;100763.53;1697886;83;21874;-70
2022/01/23 05:44:40;;;;;;;4.95;2.95;;;;;;;-0.24;78.11;100763.53;1706234;82;21534;-70
2022/01/23 05:47:09;;;;;;;5.75;3.05;;;;;;;-0.24;78.03;100755.84;1705461;83;22420;-70
2022/01/23 05:49:36;;;;;;;5.87;3.25;;;;;;;-0.24;78.02;100755.84;1708805;83;21053;-70
2022/01/23 05:52:05;;;;;;;11.20;5.27;;;;;;;-0.27;77.97;100748.09;1708048;83;21041;-70
2022/01/23 05:54:32;;;;;;;12.28;6.42;;;;;;;-0.29;77.95;100759.19;1706052;83;21001;-69
2022/01/23 05:56:58;;;;;;;13.03;6.30;;;;;;;-0.29;78.03;100763.89;1709152;83;21124;-70
2022/01/23 05:59:25;;;;;;;16.00;7.00;;;;;;;-0.28;78.06;100772.05;1704650;81;22336;-69
2022/01/23 06:01:53;;;;;;;19.40;8.50;;;;;;;-0.27;78.04;100773.77;1703207;83;22092;-70
2022/01/23 06:04:20;;;;;;;13.08;7.30;;;;;;;-0.26;78.09;100773.34;1700085;83;21110;-70
2022/01/23 06:06:49;;;;;;;11.85;6.10;;;;;;;-0.26;78.02;100781.04;1699867;83;21618;-70
2022/01/23 06:09:16;;;;;;;7.75;4.05;;;;;;;-0.26;78.05;100784.89;1695747;83;21053;-70
2022/01/23 06:11:43;;;;;;;6.20;3.75;;;;;;;-0.30;77.97;100783.98;1697459;83;21169;-71
2022/01/23 06:14:10;;;;;;;7.90;3.30;;;;;;;-0.33;77.97;100791.65;1730612;81;21114;-71
2022/01/23 06:16:38;;;;;;;7.42;3.35;;;;;;;-0.35;77.99;100798.45;1727573;81;22309;-70
2022/01/23 06:19:05;;;;;;;6.60;3.40;;;;;;;-0.38;78.01;100803.55;1732014;81;21219;-70
2022/01/23 06:21:33;;;;;;;5.62;3.08;;;;;;;-0.38;78.11;100808.67;1730622;81;21010;-71
2022/01/23 06:24:14;;;;;;;8.10;4.10;;;;;;;-0.38;78.12;100821.52;1717855;81;21237;-70
2022/01/23 06:26:50;;;;;;;7.78;4.33;;;;;;;-0.37;78.18;100818.09;1702992;82;21037;-70
2022/01/23 06:29:20;;;;;;;10.80;4.08;;;;;;;-0.37;78.13;100814.67;1703694;83;21053;-70
2022/01/23 06:31:49;;;;;;;8.30;4.03;;;;;;;-0.37;78.10;100817.23;1705422;83;21486;-71
2022/01/23 06:34:18;;;;;;;8.58;4.37;;;;;;;-0.36;78.28;100823.69;1709038;82;21711;-70
2022/01/23 06:36:45;;;;;;;11.00;4.83;;;;;;;-0.37;78.11;100821.08;1705695;81;21432;-72
2022/01/23 06:39:15;;;;;;;8.00;4.12;;;;;;;-0.40;78.09;100823.18;1708842;82;21672;-71
2022/01/23 06:41:42;;;;;;;9.25;4.47;;;;;;;-0.41;78.19;100820.19;1697179;83;21154;-71
2022/01/23 06:44:10;;;;;;;9.08;4.08;;;;;;;-0.41;78.18;100823.17;1710233;82;21157;-71
2022/01/23 06:46:39;;;;;;;7.62;4.05;;;;;;;-0.39;78.30;100826.21;1710889;82;21165;-71
2022/01/23 06:49:10;;;;;;;6.22;4.10;;;;;;;-0.36;78.39;100826.25;1688253;82;22282;-71
2022/01/23 06:51:38;;;;;;;10.80;4.62;;;;;;;-0.33;78.43;100819.87;1712947;82;21463;-71
2022/01/23 06:54:07;;;;;;;7.95;4.53;;;;;;;-0.32;78.31;100822.02;1719304;81;21070;-71
2022/01/23 06:56:33;;;;;;;11.57;6.72;;;;;;;-0.32;78.33;100811.33;1705919;82;21176;-71
2022/01/23 06:59:00;;;;;;;12.43;6.15;;;;;;;-0.30;78.41;100811.36;1701442;82;21200;-72
2022/01/23 07:01:26;;;;;;;10.40;5.58;;;;;;;-0.29;78.39;100816.92;1695850;82;21537;-71
2022/01/23 07:03:53;;;;;;;9.83;5.28;;;;;;;-0.28;78.29;100818.64;1704427;83;21144;-71
2022/01/23 07:06:20;;;;;;;10.50;5.33;;;;;;;-0.26;78.45;100818.25;1712515;82;21901;-71
2022/01/23 07:08:46;;;;;;;10.00;5.08;;;;;;;-0.17;78.53;100825.22;1708786;82;21163;-71
2022/01/23 07:11:13;;;;;;;8.70;4.97;;;;;;;-0.15;78.50;100827.39;1712388;83;21982;-71
2022/01/23 07:13:40;;;;;;;10.45;5.35;;;;;;;-0.13;78.55;100822.73;1707664;83;21148;-71
2022/01/23 07:16:07;;;;;;;9.40;5.53;;;;;;;-0.10;78.47;100825.76;1713401;81;21682;-71
2022/01/23 07:18:34;;;;;;;10.93;5.55;;;;;;;-0.07;78.58;100824.09;1718263;82;21028;-71
2022/01/23 07:21:01;;;;;;;10.85;5.58;;;;;;;0.00;78.56;100827.63;1708640;82;21056;-71
2022/01/23 07:23:29;;;;;;;10.65;6.30;;;;;;;0.06;78.56;100835.40;1707722;82;21077;-71
2022/01/23 07:25:55;;;;;;;12.07;6.87;;;;;;;0.09;78.48;100828.16;1710720;82;22281;-72
2022/01/23 07:28:31;;;;;;;11.53;6.45;;;;;;;0.10;78.52;100835.87;1719947;82;21128;-73
2022/01/23 07:30:53;;;;;;;11.38;6.25;;;;;;;0.16;78.63;100837.66;1715840;82;21113;-71
2022/01/23 07:33:19;;;;;;;10.90;6.05;;;;;;;0.23;78.65;100833.48;1717805;82;21034;-71
2022/01/23 07:35:48;;;;;;;9.43;5.85;;;;;;;0.30;78.64;100840.40;1704041;82;21141;-71
2022/01/23 07:38:18;;;;;;;10.65;6.55;;;;;;;0.33;78.50;100840.44;1708593;83;21090;-71
2022/01/23 07:40:52;;;;;;;11.33;6.47;;;;;;;0.36;78.50;100853.31;1715899;82;21590;-70
2022/01/23 07:43:16;;;;;;;13.88;7.50;;;;;;;0.41;78.53;100854.23;1701711;83;21026;-71
2022/01/23 07:45:43;;;;;;;12.23;5.78;;;;;;;0.47;78.61;100854.30;1697095;83;21078;-70
2022/01/23 07:48:11;;;;;;;9.38;6.58;;;;;;;0.55;78.70;100862.97;1706201;83;21611;-70
2022/01/23 07:50:37;;;;;;;;;;;;;;;0.57;78.59;100861.30;1707427;83;21152;-70
2022/01/23 07:53:05;;;;;;;10.93;6.80;;;;;;;0.58;78.55;100861.72;1705973;83;20906;-70
2022/01/23 07:55:32;;;;;;;16.45;8.68;;;;;;;0.63;78.78;100858.78;1709206;82;22019;-70
2022/01/23 07:58:05;;;;;;;14.90;9.27;;;;;;;0.69;78.70;100867.42;1713711;82;21241;-70
2022/01/23 08:00:27;;;;;;;14.98;8.88;;;;;;;0.69;78.64;100861.84;1709968;82;22294;-70
2022/01/23 08:02:54;;;;;;;12.45;8.63;;;;;;;0.76;78.76;100869.23;1704364;82;21376;-70
2022/01/23 08:05:21;;;;;;;9.83;5.55;;;;;;;0.86;78.95;100864.60;1710432;82;21513;-70
2022/01/23 08:07:48;;;;;;;8.70;4.87;;;;;;;0.96;78.98;100861.72;1707821;82;23259;-70
2022/01/23 08:10:16;;;;;;;9.03;5.03;;;;;;;1.05;78.94;100866.95;1716905;82;21271;-69
2022/01/23 08:12:43;;;;;;;11.10;5.35;;;;;;;1.10;78.94;100879.44;1708214;82;21513;-69
2022/01/23 08:15:10;;;;;;;9.30;5.65;;;;;;;1.18;79.03;100876.52;1705318;81;21107;-71
2022/01/23 08:17:37;;;;;;;10.18;5.47;;;;;;;1.23;79.02;100874.85;1705286;82;21680;-70
2022/01/23 08:20:06;;;;;;;10.18;5.17;;;;;;;1.28;79.07;100872.30;1708750;83;21056;-70
2022/01/23 08:22:33;;;;;;;9.85;5.08;;;;;;;1.31;79.01;100884.77;1699099;83;21081;-71
2022/01/23 08:25:06;;;;;;;10.63;5.40;;;;;;;1.31;79.06;100882.62;1731157;81;21106;-70
2022/01/23 08:27:30;;;;;;;10.10;5.78;;;;;;;1.26;78.95;100881.70;1724237;81;21108;-70
2022/01/23 08:29:57;;;;;;;9.38;4.92;;;;;;;1.26;79.09;100887.74;1724271;81;21082;-70
2022/01/23 08:32:25;;;;;;;10.32;5.58;;;;;;;1.24;79.09;100889.86;1725708;81;21062;-70
2022/01/23 08:34:52;;;;;;;9.75;5.60;;;;;;;1.21;79.16;100897.55;1721368;81;21105;-70
2022/01/23 08:37:20;;;;;;;11.48;6.58;;;;;;;1.25;79.26;100903.16;1724687;81;22106;-70
2022/01/23 08:39:48;;;;;;;16.02;6.40;;;;;;;1.28;79.30;100901.46;1727140;81;21204;-69
2022/01/23 08:42:17;;;;;;;11.38;6.60;;;;;;;1.32;79.35;100897.23;1732533;81;21050;-70
2022/01/23 08:44:46;;;;;;;17.15;10.18;;;;;;;1.34;79.34;100900.66;1699325;83;21828;-70
2022/01/23 08:47:13;;;;;;;10.82;6.87;;;;;;;1.38;79.31;100903.71;1706070;82;21717;-69
2022/01/23 08:49:48;;;;;;;14.13;6.62;;;;;;;1.43;79.42;100913.62;1703162;82;21733;-70
2022/01/23 08:52:17;;;;;;;11.63;6.05;;;;;;;1.50;79.49;100919.25;1729611;81;21076;-71
2022/01/23 08:54:49;;;;;;;9.85;5.80;;;;;;;1.54;79.45;100920.13;1726212;81;21675;-70
2022/01/23 08:57:21;;;;;;;10.78;5.53;;;;;;;1.59;79.41;100915.04;1728473;81;21035;-70
2022/01/23 08:59:51;;;;;;;11.50;7.28;;;;;;;1.64;79.51;100921.09;1727363;81;21785;-70
2022/01/23 09:02:19;;;;;;;9.85;6.87;;;;;;;1.70;79.53;100915.55;1729108;81;21982;-70
2022/01/23 09:04:47;;;;;;;11.85;7.03;;;;;;;1.79;79.58;100912.19;1703463;82;22280;-70
2022/01/23 09:07:14;;;;;;;13.20;6.62;;;;;;;1.85;79.61;100909.69;1691929;82;21095;-70
2022/01/23 09:09:41;;;;;;;;;;;;;;;1.88;79.58;100913.56;1710232;82;21650;-70
2022/01/23 09:12:29;;;;;;;8.28;5.47;;;;;;;1.85;79.28;100922.56;1703292;82;20810;-70
2022/01/23 09:14:39;;;;;;;11.73;5.97;;;;;;;1.74;79.22;100928.05;1716661;82;22180;-69
2022/01/23 09:17:06;;;;;;;8.05;5.53;;;;;;;1.67;79.34;100926.27;1704420;81;21196;-69
2022/01/23 09:19:33;;;;;;;11.53;5.62;;;;;;;1.68;79.41;100926.69;1710745;82;21147;-70
2022/01/23 09:22:01;;;;;;;;;;;;;;;1.68;79.50;100931.84;1729702;81;21109;-70
2022/01/23 09:24:30;;;;;;;;;;;;;;;1.68;79.61;100935.30;1700582;83;20221;-70
2022/01/23 09:27:03;;;;;;;8.05;5.83;;;;;;;1.76;79.83;100935.34;1682499;83;20234;-70
2022/01/23 09:29:36;;;;;;;12.05;6.53;;;;;;;1.83;79.78;100937.12;1732020;81;21779;-70
2022/01/23 09:31:58;;;;;;;10.63;5.95;;;;;;;1.87;79.70;100935.00;1726648;81;21332;-70
2022/01/23 09:34:31;;;;;;;;;;;;;;;1.86;79.51;100935.86;1734501;81;21757;-70
2022/01/23 09:37:03;;;;;;;16.57;7.33;;;;;;;1.92;79.77;100939.77;1727723;81;20294;-70
2022/01/23 09:39:31;;;;;;;12.30;7.78;;;;;;;2.00;79.92;100934.25;1692831;82;21534;-70
2022/01/23 09:42:09;;;;;;;13.38;7.72;;;;;;;1.99;79.64;100928.67;1688066;83;21899;-70
2022/01/23 09:44:51;;;;;;;16.27;9.30;;;;;;;2.06;79.91;100936.00;1681748;82;22235;-70
2022/01/23 09:47:20;;;;;;;16.50;9.08;;;;;;;2.13;79.96;100939.08;1686373;84;21032;-70
2022/01/23 09:49:49;;;;;;;23.42;9.85;;;;;;;2.15;79.84;100936.48;1689454;83;21025;-69
2022/01/23 09:52:18;;;;;;;20.57;10.48;;;;;;;2.16;79.81;100936.52;1689039;83;21093;-69
2022/01/23 09:54:55;;;;;;;20.50;11.33;;;;;;;2.19;79.63;100943.41;1683013;84;21092;-70
2022/01/23 09:57:15;;;;;;;24.23;13.08;;;;;;;2.16;79.48;100943.39;1692791;84;21577;-70
2022/01/23 09:59:43;;;;;;;42.15;21.82;;;;;;;2.19;79.73;100940.83;1687636;83;21626;-70
2022/01/23 10:02:10;;;;;;;55.85;25.82;;;;;;;2.30;79.87;100946.91;1685952;83;21767;-71
2022/01/23 10:04:37;;;;;;;43.03;20.33;;;;;;;2.31;79.66;100951.20;1689196;83;21702;-70
2022/01/23 10:07:07;;;;;;;40.60;18.52;;;;;;;2.33;79.70;100946.92;1693130;83;21177;-70
2022/01/23 10:09:36;;;;;;;35.08;15.30;;;;;;;2.35;79.65;100955.94;1698204;83;21090;-70
2022/01/23 10:12:04;;;;;;;33.20;17.62;;;;;;;2.36;79.66;100954.67;1686240;83;21603;-69
2022/01/23 10:14:31;;;;;;;39.50;18.80;;;;;;;2.33;79.56;100949.50;1693396;82;22069;-70
2022/01/23 10:16:59;;;;;;;45.97;23.67;;;;;;;2.36;79.77;100948.23;1720017;81;21053;-70
2022/01/23 10:19:26;;;;;;;48.80;24.65;;;;;;;2.45;80.05;100940.54;1706536;82;21112;-70
2022/01/23 10:21:53;;;;;;;53.48;25.85;;;;;;;2.60;80.02;100945.34;1714449;82;21799;-71
2022/01/23 10:24:20;;;;;;;47.20;23.98;;;;;;;2.70;79.98;100949.69;1657534;84;21870;-70
2022/01/23 10:26:56;;;;;;;42.58;21.82;;;;;;;2.84;80.05;100953.62;1682296;83;21060;-71
2022/01/23 10:29:34;;;;;;;41.18;19.00;;;;;;;2.88;79.80;100948.89;1664752;83;21197;-71
2022/01/23 10:32:21;;;;;;;35.15;18.42;;;;;;;2.91;79.71;100953.66;1687785;83;21838;-72
2022/01/23 10:34:55;;;;;;;33.50;16.52;;;;;;;2.98;79.78;100962.70;1685062;83;20947;-73
2022/01/23 10:37:38;;;;;;;29.52;16.77;;;;;;;3.08;79.81;100967.02;1690040;83;21662;-68
2022/01/23 10:40:27;;;;;;;24.70;14.30;;;;;;;3.10;79.69;100973.06;1717159;81;22246;-70
2022/01/23 10:48:37;;;;;;;26.40;13.78;;;;;;;3.15;79.71;100973.94;1698723;82;21092;-69
2022/01/23 10:51:28;;;;;;;24.85;13.83;;;;;;;3.15;79.65;100976.52;1691203;82;21113;-70
2022/01/23 10:54:06;;;;;;;27.22;14.50;;;;;;;3.12;79.60;100970.06;1665629;84;21190;-69
2022/01/23 10:56:54;;;;;;;22.15;14.20;;;;;;;3.07;79.58;100978.21;1689078;84;21127;-69
2022/01/23 11:00:46;;;;;;;23.12;13.68;;;;;;;2.97;79.55;100979.02;1780304;78;23542;-68
2022/01/23 11:03:23;;;;;;;23.62;13.13;;;;;;;2.83;79.56;100979.85;1756134;79;21769;-69
2022/01/23 11:05:52;;;;;;;24.45;13.58;;;;;;;2.79;79.71;100988.41;1753972;80;21080;-68
2022/01/23 11:08:29;;;;;;;21.93;13.20;;;;;;;2.76;79.79;100988.41;1760597;79;21351;-69
2022/01/23 11:11:00;;;;;;;;;;;;;;;2.72;79.87;100983.21;1708532;82;21448;-71
2022/01/23 11:19:26;;;;;;;33.90;19.52;;;;;;;2.57;80.05;100977.55;1709557;82;21194;-69
2022/01/23 11:21:54;;;;;;;36.80;21.97;;;;;;;2.51;80.02;100978.81;1712229;82;22681;-71
2022/01/23 11:24:41;;;;;;;29.23;17.87;;;;;;;2.51;80.32;100984.83;1732774;81;20982;-70
2022/01/23 11:27:24;;;;;;;32.30;19.12;;;;;;;2.57;80.41;100982.71;1726093;81;21091;-69
2022/01/23 11:30:25;;;;;;;37.90;18.98;;;;;;;2.62;80.53;100982.31;1680246;83;21200;-70
2022/01/23 11:32:51;;;;;;;33.00;17.45;;;;;;;2.69;80.42;100981.51;1707129;83;21093;-69
2022/01/23 11:35:19;;;;;;;31.40;17.47;;;;;;;2.78;80.63;100987.99;1697763;83;21097;-69
2022/01/23 11:38:12;;;;;;;32.53;18.65;;;;;;;2.81;80.48;100993.16;1725232;81;21742;-69
2022/01/23 11:50:36;;;;;;;23.38;15.75;;;;;;;2.86;80.56;100990.18;1721284;82;21045;-71
2022/01/23 11:55:35;;;;;;;34.55;17.85;;;;;;;2.87;80.40;100991.89;1654616;84;21642;-68
2022/01/23 11:58:04;;;;;;;36.50;19.42;;;;;;;2.99;80.73;100999.25;1638899;85;21204;-68
2022/01/23 12:00:36;;;;;;;28.98;17.25;;;;;;;3.08;80.77;100992.83;1655174;84;21724;-69
2022/01/23 12:03:18;;;;;;;32.95;18.00;;;;;;;3.14;80.58;100996.31;1657043;84;21628;-68
2022/01/23 12:05:47;;;;;;;31.05;17.85;;;;;;;3.12;80.45;101002.33;1661575;84;21144;-69
2022/01/23 12:08:35;;;;;;;28.95;17.12;;;;;;;3.19;80.78;101004.05;1663888;84;21407;-69
2022/01/23 12:16:31;;;;;;;26.23;16.48;;;;;;;3.07;80.45;101013.05;1634417;86;21161;-68
2022/01/23 12:19:21;;;;;;;31.45;18.25;;;;;;;3.02;80.38;101018.61;1624912;86;21216;-71
2022/01/23 12:21:52;;;;;;;36.28;20.27;;;;;;;2.88;80.18;101019.41;1592087;88;21172;-70
2022/01/23 12:24:22;;;;;;;36.65;21.80;;;;;;;2.82;80.35;101021.95;1707704;83;21218;-70
2022/01/23 12:26:51;;;;;;;45.23;23.47;;;;;;;2.83;80.68;101017.26;1710173;83;21273;-70
2022/01/23 12:29:27;;;;;;;42.58;24.23;;;;;;;2.83;80.54;101013.39;1714816;83;21097;-69
2022/01/23 12:32:29;;;;;;;47.75;24.63;;;;;;;2.85;80.63;101017.25;1713887;83;21041;-69
2022/01/23 12:35:06;;;;;;;47.43;24.32;;;;;;;2.85;80.64;101021.97;1710613;82;21009;-70
2022/01/23 12:38:06;;;;;;;38.33;24.00;;;;;;;2.85;80.59;101027.56;1710258;82;22381;-69
2022/01/23 12:40:43;;;;;;;48.05;26.80;;;;;;;2.79;80.50;101021.09;1716547;83;21519;-70
2022/01/23 12:43:28;;;;;;;43.98;23.47;;;;;;;2.74;80.59;101020.20;1704889;83;21300;-70
2022/01/23 12:46:10;;;;;;;41.53;22.70;;;;;;;2.67;80.55;101017.59;1704143;82;21684;-70
2022/01/23 12:48:38;;;;;;;43.00;22.60;;;;;;;2.58;80.43;101016.69;1676403;83;21085;-70
2022/01/23 12:51:09;;;;;;;35.80;23.10;;;;;;;2.53;80.63;101020.95;1683700;84;21096;-70
2022/01/23 12:53:50;;;;;;;37.33;22.52;;;;;;;2.53;80.98;101020.52;1679283;84;21025;-70
2022/01/23 12:56:20;;;;;;;33.08;20.35;;;;;;;2.61;81.08;101019.28;1686978;84;21057;-70
2022/01/23 12:58:53;;;;;;;36.55;20.45;;;;;;;2.66;81.17;101017.56;1679705;84;21080;-69
2022/01/23 13:01:26;;;;;;;33.18;20.65;;;;;;;2.68;81.21;101017.16;1699967;83;21042;-70
2022/01/23 13:03:58;;;;;;;27.60;18.30;;;;;;;2.81;81.46;101013.80;1701401;83;21013;-70
2022/01/23 13:06:49;;;;;;;33.20;18.87;;;;;;;2.87;81.20;101009.95;1707027;82;21112;-69
2022/01/23 13:12:26;;;;;;;31.07;18.80;;;;;;;2.90;81.03;101013.83;1702058;82;21681;-68
2022/01/23 13:15:17;;;;;;;32.48;19.77;;;;;;;2.90;80.89;101017.70;1698176;83;21142;-68
2022/01/23 13:17:51;;;;;;;32.95;19.73;;;;;;;2.94;81.12;101022.88;1699001;82;21375;-68
2022/01/23 13:31:50;;;;;;;33.35;21.12;;;;;;;3.08;80.81;101006.63;1646670;82;21113;-68
2022/01/23 13:34:35;;;;;;;32.53;20.88;;;;;;;3.05;80.74;101005.72;1680722;83;22436;-68
2022/01/23 13:37:10;;;;;;;;;;;;;;;2.97;80.73;101012.56;1709969;83;21622;-68
2022/01/23 13:39:53;;;;;;;33.20;22.48;;;;;;;2.86;80.71;101010.81;1704676;82;20171;-68
2022/01/23 13:58:20;;;;;;;37.00;21.05;;;;;;;2.44;81.06;101018.74;1825483;76;22832;-68
2022/01/23 14:00:26;;;;;;;36.35;21.12;;;;;;;2.34;81.07;101013.08;1807714;78;21128;-68
2022/01/23 14:03:35;;;;;;;38.08;20.88;;;;;;;2.33;81.22;101015.23;1852987;75;24095;-69
2022/01/23 14:06:03;;;;;;;36.60;22.40;;;;;;;2.27;81.13;101023.32;1834046;76;21330;-69
2022/01/23 14:08:30;;;;;;;34.73;21.77;;;;;;;2.22;81.34;101018.16;1830646;77;21069;-68
2022/01/23 14:10:57;;;;;;;32.48;21.95;;;;;;;2.27;81.52;101018.17;1832654;76;21509;-68
2022/01/23 14:13:27;;;;;;;34.25;21.33;;;;;;;2.21;81.37;101028.00;1830856;77;21005;-68
2022/01/23 14:15:55;;;;;;;41.95;22.13;;;;;;;2.19;81.48;101020.71;1831051;77;21622;-68
2022/01/23 14:18:44;;;;;;;35.38;20.27;;;;;;;2.17;81.51;101014.67;1841350;77;21086;-68
2022/01/23 14:21:12;;;;;;;34.60;21.80;;;;;;;2.15;81.45;101009.92;1836689;76;21065;-69
2022/01/23 14:23:42;;;;;;;37.65;22.13;;;;;;;2.12;81.42;101011.19;1833063;77;21005;-68
2022/01/23 14:30:23;;;;;;;33.13;19.37;;;;;;;2.08;81.59;101004.30;1838755;76;22686;-68
2022/01/23 14:32:52;;;;;;;39.33;19.85;;;;;;;1.98;81.49;101004.20;1781795;79;21020;-69
2022/01/23 14:35:31;;;;;;;33.18;21.62;;;;;;;1.92;81.53;101015.75;1746305;81;21122;-69
2022/01/23 14:38:16;;;;;;;36.10;20.90;;;;;;;1.88;81.54;101021.73;1765963;80;21044;-69
2022/01/23 14:41:05;;;;;;;41.88;23.27;;;;;;;1.86;81.67;101029.02;1746831;81;21031;-70
2022/01/23 14:43:41;;;;;;;33.90;22.00;;;;;;;1.81;81.63;101023.81;1746609;81;20985;-69
2022/01/23 14:46:11;;;;;;;36.58;20.72;;;;;;;1.81;81.77;101031.53;1766118;79;21381;-70
2022/01/23 14:48:46;;;;;;;31.17;21.15;;;;;;;1.75;81.69;101030.20;1772609;79;21142;-70
2022/01/23 14:51:20;;;;;;;38.92;22.55;;;;;;;1.70;81.67;101034.42;1773776;79;21642;-69
2022/01/23 14:53:51;;;;;;;43.13;21.77;;;;;;;1.67;81.85;101038.27;1732403;79;21576;-69
2022/01/23 14:56:22;;;;;;;36.25;23.07;;;;;;;1.64;81.79;101049.39;1755920;80;21722;-69